sensor_id;sensor_type;location;lat;lon;timestamp;P1;durP1;ratioP1;P2;durP2;ratioP2
9288;SDS011;4683;50.864;12.086;2024-03-17T00:01:10;4.50;;;3.07;;
9288;SDS011;4683;50.864;12.086;2024-03-17T00:03:40;6.47;;;3.50;;
9288;SDS011;4683;50.864;12.086;2024-03-17T00:06:09;4.37;;;3.37;;
9288;SDS011;4683;50.864;12.086;2024-03-17T00:08:38;3.57;;;2.77;;
9288;SDS011;4683;50.864;12.086;2024-03-17T00:11:06;3.80;;;3.10;;
9288;SDS011;4683;50.864;12.086;2024-03-17T00:13:35;3.50;;;3.20;;
9288;SDS011;4683;50.864;12.086;2024-03-17T00:16:04;4.03;;;3.10;;
9288;SDS011;4683;50.864;12.086;2024-03-17T00:18:34;3.70;;;3.10;;
9288;SDS011;4683;50.864;12.086;2024-03-17T00:21:03;5.57;;;3.57;;
9288;SDS011;4683;50.864;12.086;2024-03-17T00:23:33;3.63;;;3.30;;
9288;SDS011;4683;50.864;12.086;2024-03-17T00:26:04;4.40;;;3.40;;
9288;SDS011;4683;50.864;12.086;2024-03-17T00:28:34;4.53;;;3.17;;
9288;SDS011;4683;50.864;12.086;2024-03-17T00:31:03;3.63;;;3.20;;
9288;SDS011;4683;50.864;12.086;2024-03-17T00:33:33;3.93;;;3.20;;
9288;SDS011;4683;50.864;12.086;2024-03-17T00:36:01;5.20;;;3.00;;
9288;SDS011;4683;50.864;12.086;2024-03-17T00:38:33;4.43;;;3.30;;
9288;SDS011;4683;50.864;12.086;2024-03-17T00:41:02;5.83;;;2.83;;
9288;SDS011;4683;50.864;12.086;2024-03-17T00:43:30;4.33;;;3.93;;
9288;SDS011;4683;50.864;12.086;2024-03-17T00:45:59;6.07;;;3.93;;
9288;SDS011;4683;50.864;12.086;2024-03-17T00:48:28;9.63;;;6.10;;
9288;SDS011;4683;50.864;12.086;2024-03-17T00:50:56;4.97;;;3.67;;
9288;SDS011;4683;50.864;12.086;2024-03-17T00:53:25;16.27;;;10.53;;
9288;SDS011;4683;50.864;12.086;2024-03-17T00:55:57;19.17;;;12.50;;
9288;SDS011;4683;50.864;12.086;2024-03-17T00:58:26;5.77;;;4.73;;
9288;SDS011;4683;50.864;12.086;2024-03-17T01:00:55;5.43;;;4.03;;
9288;SDS011;4683;50.864;12.086;2024-03-17T01:03:24;12.73;;;9.53;;
9288;SDS011;4683;50.864;12.086;2024-03-17T01:05:53;15.80;;;10.53;;
9288;SDS011;4683;50.864;12.086;2024-03-17T01:08:22;18.60;;;12.17;;
9288;SDS011;4683;50.864;12.086;2024-03-17T01:10:49;16.00;;;10.97;;
9288;SDS011;4683;50.864;12.086;2024-03-17T01:13:20;11.13;;;8.23;;
9288;SDS011;4683;50.864;12.086;2024-03-17T01:15:51;5.40;;;4.70;;
9288;SDS011;4683;50.864;12.086;2024-03-17T01:18:20;5.00;;;3.90;;
9288;SDS011;4683;50.864;12.086;2024-03-17T01:24:28;7.03;;;6.17;;
9288;SDS011;4683;50.864;12.086;2024-03-17T01:26:59;5.97;;;5.37;;
9288;SDS011;4683;50.864;12.086;2024-03-17T01:29:29;4.20;;;3.30;;
9288;SDS011;4683;50.864;12.086;2024-03-17T01:31:58;4.53;;;3.60;;
9288;SDS011;4683;50.864;12.086;2024-03-17T01:34:26;4.97;;;4.47;;
9288;SDS011;4683;50.864;12.086;2024-03-17T01:36:54;3.83;;;3.50;;
9288;SDS011;4683;50.864;12.086;2024-03-17T01:39:24;6.33;;;4.80;;
9288;SDS011;4683;50.864;12.086;2024-03-17T01:41:51;4.80;;;3.53;;
9288;SDS011;4683;50.864;12.086;2024-03-17T01:44:23;4.87;;;3.80;;
9288;SDS011;4683;50.864;12.086;2024-03-17T01:46:53;6.20;;;4.07;;
9288;SDS011;4683;50.864;12.086;2024-03-17T01:49:22;5.57;;;4.13;;
9288;SDS011;4683;50.864;12.086;2024-03-17T01:51:52;5.00;;;4.10;;
9288;SDS011;4683;50.864;12.086;2024-03-17T01:54:23;4.73;;;3.40;;
9288;SDS011;4683;50.864;12.086;2024-03-17T01:56:51;4.87;;;3.30;;
9288;SDS011;4683;50.864;12.086;2024-03-17T01:59:20;4.03;;;3.43;;
9288;SDS011;4683;50.864;12.086;2024-03-17T02:01:48;3.40;;;3.10;;
9288;SDS011;4683;50.864;12.086;2024-03-17T02:04:19;4.33;;;3.00;;
9288;SDS011;4683;50.864;12.086;2024-03-17T02:06:47;3.50;;;3.20;;
9288;SDS011;4683;50.864;12.086;2024-03-17T02:09:17;4.13;;;3.53;;
9288;SDS011;4683;50.864;12.086;2024-03-17T02:11:47;3.90;;;3.47;;
9288;SDS011;4683;50.864;12.086;2024-03-17T02:14:16;3.30;;;3.00;;
9288;SDS011;4683;50.864;12.086;2024-03-17T02:16:43;5.27;;;3.27;;
9288;SDS011;4683;50.864;12.086;2024-03-17T02:19:12;3.13;;;2.83;;
9288;SDS011;4683;50.864;12.086;2024-03-17T02:21:41;6.17;;;3.60;;
9288;SDS011;4683;50.864;12.086;2024-03-17T02:24:10;3.70;;;3.40;;
9288;SDS011;4683;50.864;12.086;2024-03-17T02:26:37;3.90;;;3.33;;
9288;SDS011;4683;50.864;12.086;2024-03-17T02:29:07;4.07;;;3.70;;
9288;SDS011;4683;50.864;12.086;2024-03-17T02:31:36;4.00;;;2.80;;
9288;SDS011;4683;50.864;12.086;2024-03-17T02:34:05;3.40;;;3.10;;
9288;SDS011;4683;50.864;12.086;2024-03-17T02:36:34;5.37;;;3.30;;
9288;SDS011;4683;50.864;12.086;2024-03-17T02:39:08;4.83;;;3.27;;
9288;SDS011;4683;50.864;12.086;2024-03-17T02:41:58;4.90;;;3.03;;
9288;SDS011;4683;50.864;12.086;2024-03-17T02:44:29;5.83;;;3.33;;
9288;SDS011;4683;50.864;12.086;2024-03-17T02:46:59;3.43;;;3.13;;
9288;SDS011;4683;50.864;12.086;2024-03-17T02:49:31;5.00;;;3.97;;
9288;SDS011;4683;50.864;12.086;2024-03-17T02:52:04;4.33;;;3.70;;
9288;SDS011;4683;50.864;12.086;2024-03-17T02:54:37;5.10;;;4.30;;
9288;SDS011;4683;50.864;12.086;2024-03-17T02:57:11;6.47;;;3.77;;
9288;SDS011;4683;50.864;12.086;2024-03-17T02:59:41;6.30;;;3.23;;
9288;SDS011;4683;50.864;12.086;2024-03-17T03:02:12;3.67;;;3.23;;
9288;SDS011;4683;50.864;12.086;2024-03-17T03:04:40;3.73;;;3.43;;
9288;SDS011;4683;50.864;12.086;2024-03-17T03:07:08;4.63;;;4.13;;
9288;SDS011;4683;50.864;12.086;2024-03-17T03:09:38;5.23;;;4.23;;
9288;SDS011;4683;50.864;12.086;2024-03-17T03:12:08;5.77;;;3.90;;
9288;SDS011;4683;50.864;12.086;2024-03-17T03:14:38;4.30;;;3.63;;
9288;SDS011;4683;50.864;12.086;2024-03-17T03:17:07;3.87;;;3.47;;
9288;SDS011;4683;50.864;12.086;2024-03-17T03:19:36;6.40;;;4.00;;
9288;SDS011;4683;50.864;12.086;2024-03-17T03:22:05;4.93;;;3.30;;
9288;SDS011;4683;50.864;12.086;2024-03-17T03:24:34;6.60;;;3.70;;
9288;SDS011;4683;50.864;12.086;2024-03-17T03:27:05;4.50;;;3.23;;
9288;SDS011;4683;50.864;12.086;2024-03-17T03:33:42;6.60;;;4.40;;
9288;SDS011;4683;50.864;12.086;2024-03-17T03:36:11;6.30;;;3.90;;
9288;SDS011;4683;50.864;12.086;2024-03-17T03:38:42;6.53;;;4.33;;
9288;SDS011;4683;50.864;12.086;2024-03-17T03:41:11;6.23;;;4.13;;
9288;SDS011;4683;50.864;12.086;2024-03-17T03:43:44;4.90;;;3.70;;
9288;SDS011;4683;50.864;12.086;2024-03-17T03:46:14;4.30;;;3.90;;
9288;SDS011;4683;50.864;12.086;2024-03-17T03:48:43;4.73;;;3.80;;
9288;SDS011;4683;50.864;12.086;2024-03-17T03:51:11;4.63;;;4.07;;
9288;SDS011;4683;50.864;12.086;2024-03-17T03:53:40;5.70;;;4.07;;
9288;SDS011;4683;50.864;12.086;2024-03-17T03:56:09;4.83;;;4.10;;
9288;SDS011;4683;50.864;12.086;2024-03-17T03:58:39;4.83;;;4.33;;
9288;SDS011;4683;50.864;12.086;2024-03-17T04:01:12;5.27;;;3.87;;
9288;SDS011;4683;50.864;12.086;2024-03-17T04:03:48;4.27;;;3.87;;
9288;SDS011;4683;50.864;12.086;2024-03-17T04:06:17;4.80;;;4.00;;
9288;SDS011;4683;50.864;12.086;2024-03-17T04:08:46;6.53;;;4.17;;
9288;SDS011;4683;50.864;12.086;2024-03-17T04:11:14;5.60;;;4.00;;
9288;SDS011;4683;50.864;12.086;2024-03-17T04:13:44;10.00;;;6.23;;
9288;SDS011;4683;50.864;12.086;2024-03-17T04:16:16;6.57;;;4.80;;
9288;SDS011;4683;50.864;12.086;2024-03-17T04:18:45;5.73;;;4.23;;
9288;SDS011;4683;50.864;12.086;2024-03-17T04:21:14;7.93;;;5.30;;
9288;SDS011;4683;50.864;12.086;2024-03-17T04:23:42;4.80;;;3.57;;
9288;SDS011;4683;50.864;12.086;2024-03-17T04:26:10;5.90;;;4.03;;
9288;SDS011;4683;50.864;12.086;2024-03-17T04:28:40;5.10;;;3.90;;
9288;SDS011;4683;50.864;12.086;2024-03-17T04:31:08;4.77;;;3.73;;
9288;SDS011;4683;50.864;12.086;2024-03-17T04:33:40;5.60;;;3.70;;
9288;SDS011;4683;50.864;12.086;2024-03-17T04:36:09;5.00;;;3.83;;
9288;SDS011;4683;50.864;12.086;2024-03-17T04:38:39;5.67;;;3.97;;
9288;SDS011;4683;50.864;12.086;2024-03-17T04:41:09;6.23;;;4.27;;
9288;SDS011;4683;50.864;12.086;2024-03-17T04:43:37;5.07;;;3.93;;
9288;SDS011;4683;50.864;12.086;2024-03-17T04:46:05;4.30;;;3.90;;
9288;SDS011;4683;50.864;12.086;2024-03-17T04:48:37;4.80;;;4.40;;
9288;SDS011;4683;50.864;12.086;2024-03-17T04:51:07;7.30;;;5.20;;
9288;SDS011;4683;50.864;12.086;2024-03-17T04:53:41;7.63;;;4.70;;
9288;SDS011;4683;50.864;12.086;2024-03-17T04:56:10;6.20;;;4.70;;
9288;SDS011;4683;50.864;12.086;2024-03-17T04:58:40;7.93;;;6.50;;
9288;SDS011;4683;50.864;12.086;2024-03-17T05:01:10;7.53;;;5.97;;
9288;SDS011;4683;50.864;12.086;2024-03-17T05:03:41;16.93;;;12.13;;
9288;SDS011;4683;50.864;12.086;2024-03-17T05:06:11;7.00;;;5.17;;
9288;SDS011;4683;50.864;12.086;2024-03-17T05:08:40;7.83;;;4.90;;
9288;SDS011;4683;50.864;12.086;2024-03-17T05:11:11;5.23;;;4.50;;
9288;SDS011;4683;50.864;12.086;2024-03-17T05:13:42;6.07;;;5.33;;
9288;SDS011;4683;50.864;12.086;2024-03-17T05:16:12;6.17;;;4.50;;
9288;SDS011;4683;50.864;12.086;2024-03-17T05:18:41;5.73;;;4.63;;
9288;SDS011;4683;50.864;12.086;2024-03-17T05:21:11;5.40;;;4.90;;
9288;SDS011;4683;50.864;12.086;2024-03-17T05:23:40;6.10;;;4.87;;
9288;SDS011;4683;50.864;12.086;2024-03-17T05:26:11;7.27;;;6.00;;
9288;SDS011;4683;50.864;12.086;2024-03-17T05:28:39;9.80;;;5.67;;
9288;SDS011;4683;50.864;12.086;2024-03-17T05:31:07;6.23;;;5.00;;
9288;SDS011;4683;50.864;12.086;2024-03-17T05:33:35;7.37;;;4.50;;
9288;SDS011;4683;50.864;12.086;2024-03-17T05:36:06;6.53;;;5.33;;
9288;SDS011;4683;50.864;12.086;2024-03-17T05:38:35;7.87;;;5.40;;
9288;SDS011;4683;50.864;12.086;2024-03-17T05:41:04;7.80;;;5.57;;
9288;SDS011;4683;50.864;12.086;2024-03-17T05:43:34;6.77;;;5.50;;
9288;SDS011;4683;50.864;12.086;2024-03-17T05:46:06;6.23;;;5.27;;
9288;SDS011;4683;50.864;12.086;2024-03-17T05:48:36;6.80;;;5.30;;
9288;SDS011;4683;50.864;12.086;2024-03-17T05:51:08;7.60;;;5.40;;
9288;SDS011;4683;50.864;12.086;2024-03-17T05:53:39;7.23;;;5.77;;
9288;SDS011;4683;50.864;12.086;2024-03-17T05:56:11;6.00;;;5.40;;
9288;SDS011;4683;50.864;12.086;2024-03-17T05:58:41;7.90;;;5.67;;
9288;SDS011;4683;50.864;12.086;2024-03-17T06:01:11;10.40;;;5.73;;
9288;SDS011;4683;50.864;12.086;2024-03-17T06:03:40;9.33;;;6.27;;
9288;SDS011;4683;50.864;12.086;2024-03-17T06:06:10;7.13;;;6.30;;
9288;SDS011;4683;50.864;12.086;2024-03-17T06:08:38;7.73;;;6.37;;
9288;SDS011;4683;50.864;12.086;2024-03-17T06:11:06;7.50;;;5.60;;
9288;SDS011;4683;50.864;12.086;2024-03-17T06:13:35;7.37;;;5.97;;
9288;SDS011;4683;50.864;12.086;2024-03-17T06:16:05;9.57;;;6.47;;
9288;SDS011;4683;50.864;12.086;2024-03-17T06:18:34;6.27;;;5.67;;
9288;SDS011;4683;50.864;12.086;2024-03-17T06:21:04;7.13;;;5.80;;
9288;SDS011;4683;50.864;12.086;2024-03-17T06:23:37;7.23;;;5.37;;
9288;SDS011;4683;50.864;12.086;2024-03-17T06:26:06;6.77;;;4.60;;
9288;SDS011;4683;50.864;12.086;2024-03-17T06:28:39;9.00;;;5.97;;
9288;SDS011;4683;50.864;12.086;2024-03-17T06:31:08;7.23;;;5.03;;
9288;SDS011;4683;50.864;12.086;2024-03-17T06:33:37;8.50;;;6.07;;
9288;SDS011;4683;50.864;12.086;2024-03-17T06:36:06;7.63;;;5.87;;
9288;SDS011;4683;50.864;12.086;2024-03-17T06:38:36;7.27;;;5.77;;
9288;SDS011;4683;50.864;12.086;2024-03-17T06:41:04;8.60;;;5.30;;
9288;SDS011;4683;50.864;12.086;2024-03-17T06:43:32;8.13;;;6.10;;
9288;SDS011;4683;50.864;12.086;2024-03-17T06:46:01;9.30;;;6.13;;
9288;SDS011;4683;50.864;12.086;2024-03-17T06:48:34;6.97;;;5.77;;
9288;SDS011;4683;50.864;12.086;2024-03-17T06:51:03;7.13;;;6.23;;
9288;SDS011;4683;50.864;12.086;2024-03-17T06:53:32;18.53;;;11.13;;
9288;SDS011;4683;50.864;12.086;2024-03-17T06:56:03;18.77;;;11.33;;
9288;SDS011;4683;50.864;12.086;2024-03-17T06:58:33;14.93;;;9.30;;
9288;SDS011;4683;50.864;12.086;2024-03-17T07:01:02;12.30;;;8.73;;
9288;SDS011;4683;50.864;12.086;2024-03-17T07:03:31;14.20;;;9.00;;
9288;SDS011;4683;50.864;12.086;2024-03-17T07:06:02;10.27;;;7.60;;
9288;SDS011;4683;50.864;12.086;2024-03-17T07:08:31;9.23;;;6.30;;
9288;SDS011;4683;50.864;12.086;2024-03-17T07:11:01;6.70;;;5.80;;
9288;SDS011;4683;50.864;12.086;2024-03-17T07:13:34;6.63;;;5.43;;
9288;SDS011;4683;50.864;12.086;2024-03-17T07:16:06;9.17;;;6.30;;
9288;SDS011;4683;50.864;12.086;2024-03-17T07:18:36;6.47;;;5.60;;
9288;SDS011;4683;50.864;12.086;2024-03-17T07:21:04;8.63;;;6.13;;
9288;SDS011;4683;50.864;12.086;2024-03-17T07:23:36;8.03;;;6.80;;
9288;SDS011;4683;50.864;12.086;2024-03-17T07:26:07;9.90;;;7.10;;
9288;SDS011;4683;50.864;12.086;2024-03-17T07:28:37;8.23;;;6.60;;
9288;SDS011;4683;50.864;12.086;2024-03-17T07:31:08;8.20;;;6.30;;
9288;SDS011;4683;50.864;12.086;2024-03-17T07:33:37;8.43;;;6.43;;
9288;SDS011;4683;50.864;12.086;2024-03-17T07:36:06;10.23;;;6.97;;
9288;SDS011;4683;50.864;12.086;2024-03-17T07:38:39;8.33;;;6.47;;
9288;SDS011;4683;50.864;12.086;2024-03-17T07:41:08;9.63;;;6.67;;
9288;SDS011;4683;50.864;12.086;2024-03-17T07:43:37;8.37;;;6.27;;
9288;SDS011;4683;50.864;12.086;2024-03-17T07:46:08;8.30;;;6.30;;
9288;SDS011;4683;50.864;12.086;2024-03-17T07:48:40;7.30;;;5.90;;
9288;SDS011;4683;50.864;12.086;2024-03-17T07:51:11;7.20;;;6.27;;
9288;SDS011;4683;50.864;12.086;2024-03-17T07:53:41;6.90;;;5.50;;
9288;SDS011;4683;50.864;12.086;2024-03-17T07:56:14;7.17;;;5.40;;
9288;SDS011;4683;50.864;12.086;2024-03-17T07:58:44;5.63;;;4.90;;
9288;SDS011;4683;50.864;12.086;2024-03-17T08:01:15;7.77;;;5.00;;
9288;SDS011;4683;50.864;12.086;2024-03-17T08:03:45;9.40;;;5.17;;
9288;SDS011;4683;50.864;12.086;2024-03-17T08:06:17;7.30;;;5.37;;
9288;SDS011;4683;50.864;12.086;2024-03-17T08:08:47;6.00;;;5.07;;
9288;SDS011;4683;50.864;12.086;2024-03-17T08:11:18;5.73;;;4.67;;
9288;SDS011;4683;50.864;12.086;2024-03-17T08:13:48;5.47;;;4.73;;
9288;SDS011;4683;50.864;12.086;2024-03-17T08:16:17;5.43;;;4.90;;
9288;SDS011;4683;50.864;12.086;2024-03-17T08:18:47;10.03;;;5.47;;
9288;SDS011;4683;50.864;12.086;2024-03-17T08:21:16;6.33;;;5.23;;
9288;SDS011;4683;50.864;12.086;2024-03-17T08:23:45;7.30;;;4.97;;
9288;SDS011;4683;50.864;12.086;2024-03-17T08:26:14;5.93;;;5.07;;
9288;SDS011;4683;50.864;12.086;2024-03-17T08:28:44;5.37;;;4.73;;
9288;SDS011;4683;50.864;12.086;2024-03-17T08:31:15;6.33;;;4.90;;
9288;SDS011;4683;50.864;12.086;2024-03-17T08:33:43;7.17;;;4.57;;
9288;SDS011;4683;50.864;12.086;2024-03-17T08:36:13;7.30;;;5.00;;
9288;SDS011;4683;50.864;12.086;2024-03-17T08:38:48;6.80;;;4.60;;
9288;SDS011;4683;50.864;12.086;2024-03-17T08:41:16;6.40;;;4.70;;
9288;SDS011;4683;50.864;12.086;2024-03-17T08:43:46;6.83;;;4.97;;
9288;SDS011;4683;50.864;12.086;2024-03-17T08:46:15;18.80;;;13.83;;
9288;SDS011;4683;50.864;12.086;2024-03-17T08:48:45;7.43;;;5.57;;
9288;SDS011;4683;50.864;12.086;2024-03-17T08:51:13;6.90;;;5.20;;
9288;SDS011;4683;50.864;12.086;2024-03-17T08:53:43;8.83;;;4.70;;
9288;SDS011;4683;50.864;12.086;2024-03-17T08:56:12;6.03;;;4.20;;
9288;SDS011;4683;50.864;12.086;2024-03-17T08:58:40;7.30;;;4.97;;
9288;SDS011;4683;50.864;12.086;2024-03-17T09:01:11;7.90;;;4.90;;
9288;SDS011;4683;50.864;12.086;2024-03-17T09:03:42;7.20;;;4.73;;
9288;SDS011;4683;50.864;12.086;2024-03-17T09:06:13;5.27;;;3.97;;
9288;SDS011;4683;50.864;12.086;2024-03-17T09:08:45;4.73;;;4.33;;
9288;SDS011;4683;50.864;12.086;2024-03-17T09:11:14;5.07;;;3.97;;
9288;SDS011;4683;50.864;12.086;2024-03-17T09:13:43;4.83;;;4.17;;
9288;SDS011;4683;50.864;12.086;2024-03-17T09:16:13;5.03;;;3.67;;
9288;SDS011;4683;50.864;12.086;2024-03-17T09:18:45;6.57;;;4.40;;
9288;SDS011;4683;50.864;12.086;2024-03-17T09:21:18;5.03;;;4.00;;
9288;SDS011;4683;50.864;12.086;2024-03-17T09:23:46;7.57;;;5.60;;
9288;SDS011;4683;50.864;12.086;2024-03-17T09:26:15;6.80;;;4.40;;
9288;SDS011;4683;50.864;12.086;2024-03-17T09:28:45;4.37;;;3.30;;
9288;SDS011;4683;50.864;12.086;2024-03-17T09:31:14;5.47;;;3.30;;
9288;SDS011;4683;50.864;12.086;2024-03-17T09:33:43;4.70;;;3.50;;
9288;SDS011;4683;50.864;12.086;2024-03-17T09:36:13;6.53;;;3.60;;
9288;SDS011;4683;50.864;12.086;2024-03-17T09:38:42;3.30;;;2.90;;
9288;SDS011;4683;50.864;12.086;2024-03-17T09:41:14;5.33;;;3.30;;
9288;SDS011;4683;50.864;12.086;2024-03-17T09:43:51;2.90;;;2.60;;
9288;SDS011;4683;50.864;12.086;2024-03-17T09:46:24;2.93;;;2.60;;
9288;SDS011;4683;50.864;12.086;2024-03-17T09:49:01;3.83;;;2.63;;
9288;SDS011;4683;50.864;12.086;2024-03-17T09:51:30;3.10;;;2.80;;
9288;SDS011;4683;50.864;12.086;2024-03-17T09:54:05;5.40;;;3.40;;
9288;SDS011;4683;50.864;12.086;2024-03-17T09:56:43;4.30;;;3.07;;
9288;SDS011;4683;50.864;12.086;2024-03-17T09:59:12;3.80;;;2.90;;
9288;SDS011;4683;50.864;12.086;2024-03-17T10:01:43;4.00;;;3.20;;
9288;SDS011;4683;50.864;12.086;2024-03-17T10:04:14;3.87;;;3.47;;
9288;SDS011;4683;50.864;12.086;2024-03-17T10:07:02;6.60;;;3.37;;
9288;SDS011;4683;50.864;12.086;2024-03-17T10:09:31;5.03;;;3.60;;
9288;SDS011;4683;50.864;12.086;2024-03-17T10:11:59;4.00;;;2.93;;
9288;SDS011;4683;50.864;12.086;2024-03-17T10:14:27;3.63;;;2.70;;
9288;SDS011;4683;50.864;12.086;2024-03-17T10:16:59;4.90;;;3.60;;
9288;SDS011;4683;50.864;12.086;2024-03-17T10:19:29;6.33;;;3.40;;
9288;SDS011;4683;50.864;12.086;2024-03-17T10:22:03;8.40;;;3.10;;
9288;SDS011;4683;50.864;12.086;2024-03-17T10:24:32;5.43;;;3.47;;
9288;SDS011;4683;50.864;12.086;2024-03-17T10:27:05;3.10;;;2.80;;
9288;SDS011;4683;50.864;12.086;2024-03-17T10:29:40;3.40;;;3.10;;
9288;SDS011;4683;50.864;12.086;2024-03-17T10:32:16;4.00;;;2.80;;
9288;SDS011;4683;50.864;12.086;2024-03-17T10:34:50;5.13;;;2.93;;
9288;SDS011;4683;50.864;12.086;2024-03-17T10:37:25;3.90;;;2.80;;
9288;SDS011;4683;50.864;12.086;2024-03-17T10:39:59;4.07;;;2.83;;
9288;SDS011;4683;50.864;12.086;2024-03-17T10:42:38;3.87;;;2.87;;
9288;SDS011;4683;50.864;12.086;2024-03-17T10:45:16;3.97;;;3.03;;
9288;SDS011;4683;50.864;12.086;2024-03-17T10:47:59;5.13;;;3.37;;
9288;SDS011;4683;50.864;12.086;2024-03-17T10:50:37;4.87;;;3.20;;
9288;SDS011;4683;50.864;12.086;2024-03-17T10:53:10;3.70;;;3.13;;
9288;SDS011;4683;50.864;12.086;2024-03-17T10:55:46;4.00;;;2.97;;
9288;SDS011;4683;50.864;12.086;2024-03-17T10:58:21;5.13;;;2.90;;
9288;SDS011;4683;50.864;12.086;2024-03-17T11:01:01;4.23;;;3.30;;
9288;SDS011;4683;50.864;12.086;2024-03-17T11:03:35;6.13;;;4.30;;
9288;SDS011;4683;50.864;12.086;2024-03-17T11:06:06;4.30;;;3.10;;
9288;SDS011;4683;50.864;12.086;2024-03-17T11:08:38;3.20;;;2.90;;
9288;SDS011;4683;50.864;12.086;2024-03-17T11:11:12;5.53;;;3.43;;
9288;SDS011;4683;50.864;12.086;2024-03-17T11:13:42;3.30;;;2.80;;
9288;SDS011;4683;50.864;12.086;2024-03-17T11:16:25;4.20;;;3.43;;
9288;SDS011;4683;50.864;12.086;2024-03-17T11:18:56;4.80;;;3.20;;
9288;SDS011;4683;50.864;12.086;2024-03-17T11:21:34;3.53;;;3.13;;
9288;SDS011;4683;50.864;12.086;2024-03-17T11:24:05;4.40;;;3.07;;
9288;SDS011;4683;50.864;12.086;2024-03-17T11:26:46;4.03;;;3.23;;
9288;SDS011;4683;50.864;12.086;2024-03-17T11:29:28;3.87;;;3.10;;
9288;SDS011;4683;50.864;12.086;2024-03-17T11:31:59;5.70;;;3.00;;
9288;SDS011;4683;50.864;12.086;2024-03-17T11:34:33;3.93;;;3.00;;
9288;SDS011;4683;50.864;12.086;2024-03-17T11:37:03;4.27;;;3.17;;
9288;SDS011;4683;50.864;12.086;2024-03-17T11:39:48;3.57;;;2.90;;
9288;SDS011;4683;50.864;12.086;2024-03-17T11:42:23;4.00;;;2.97;;
9288;SDS011;4683;50.864;12.086;2024-03-17T11:45:00;4.77;;;3.07;;
9288;SDS011;4683;50.864;12.086;2024-03-17T11:47:33;3.73;;;3.00;;
9288;SDS011;4683;50.864;12.086;2024-03-17T11:50:10;4.97;;;3.30;;
9288;SDS011;4683;50.864;12.086;2024-03-17T11:52:41;4.93;;;2.80;;
9288;SDS011;4683;50.864;12.086;2024-03-17T11:55:16;2.77;;;2.57;;
9288;SDS011;4683;50.864;12.086;2024-03-17T11:57:45;4.37;;;2.67;;
9288;SDS011;4683;50.864;12.086;2024-03-17T12:00:21;4.93;;;3.20;;
9288;SDS011;4683;50.864;12.086;2024-03-17T12:02:50;4.63;;;3.03;;
9288;SDS011;4683;50.864;12.086;2024-03-17T12:05:20;3.20;;;2.73;;
9288;SDS011;4683;50.864;12.086;2024-03-17T12:07:48;4.43;;;3.50;;
9288;SDS011;4683;50.864;12.086;2024-03-17T12:10:21;3.53;;;3.07;;
9288;SDS011;4683;50.864;12.086;2024-03-17T12:12:48;4.13;;;2.83;;
9288;SDS011;4683;50.864;12.086;2024-03-17T12:15:19;4.30;;;3.57;;
9288;SDS011;4683;50.864;12.086;2024-03-17T12:17:52;5.27;;;3.57;;
9288;SDS011;4683;50.864;12.086;2024-03-17T12:20:22;3.63;;;3.07;;
9288;SDS011;4683;50.864;12.086;2024-03-17T12:22:49;3.97;;;3.30;;
9288;SDS011;4683;50.864;12.086;2024-03-17T12:25:20;4.00;;;3.17;;
9288;SDS011;4683;50.864;12.086;2024-03-17T12:27:48;5.23;;;3.57;;
9288;SDS011;4683;50.864;12.086;2024-03-17T12:30:17;4.97;;;3.13;;
9288;SDS011;4683;50.864;12.086;2024-03-17T12:32:44;4.10;;;3.17;;
9288;SDS011;4683;50.864;12.086;2024-03-17T12:35:15;3.93;;;2.73;;
9288;SDS011;4683;50.864;12.086;2024-03-17T12:37:45;3.83;;;2.93;;
9288;SDS011;4683;50.864;12.086;2024-03-17T12:40:20;4.17;;;3.40;;
9288;SDS011;4683;50.864;12.086;2024-03-17T12:42:50;4.93;;;3.13;;
9288;SDS011;4683;50.864;12.086;2024-03-17T12:45:19;3.77;;;3.10;;
9288;SDS011;4683;50.864;12.086;2024-03-17T12:47:47;4.23;;;3.30;;
9288;SDS011;4683;50.864;12.086;2024-03-17T12:50:17;3.37;;;2.80;;
9288;SDS011;4683;50.864;12.086;2024-03-17T12:52:55;3.67;;;2.80;;
9288;SDS011;4683;50.864;12.086;2024-03-17T12:55:23;3.87;;;2.90;;
9288;SDS011;4683;50.864;12.086;2024-03-17T12:58:11;3.90;;;2.83;;
9288;SDS011;4683;50.864;12.086;2024-03-17T13:00:59;4.60;;;3.00;;
9288;SDS011;4683;50.864;12.086;2024-03-17T13:03:36;4.23;;;3.00;;
9288;SDS011;4683;50.864;12.086;2024-03-17T13:06:06;5.03;;;3.30;;
9288;SDS011;4683;50.864;12.086;2024-03-17T13:08:51;2.60;;;2.40;;
9288;SDS011;4683;50.864;12.086;2024-03-17T13:11:20;3.87;;;2.43;;
9288;SDS011;4683;50.864;12.086;2024-03-17T13:13:50;3.50;;;2.53;;
9288;SDS011;4683;50.864;12.086;2024-03-17T13:16:18;4.47;;;2.87;;
9288;SDS011;4683;50.864;12.086;2024-03-17T13:18:49;4.33;;;2.60;;
9288;SDS011;4683;50.864;12.086;2024-03-17T13:21:18;4.33;;;3.10;;
9288;SDS011;4683;50.864;12.086;2024-03-17T13:23:47;3.47;;;3.00;;
9288;SDS011;4683;50.864;12.086;2024-03-17T13:26:16;6.17;;;2.67;;
9288;SDS011;4683;50.864;12.086;2024-03-17T13:28:45;3.60;;;3.10;;
9288;SDS011;4683;50.864;12.086;2024-03-17T13:31:14;4.13;;;2.93;;
9288;SDS011;4683;50.864;12.086;2024-03-17T13:33:46;3.57;;;2.90;;
9288;SDS011;4683;50.864;12.086;2024-03-17T13:36:15;3.73;;;2.73;;
9288;SDS011;4683;50.864;12.086;2024-03-17T13:38:44;2.90;;;2.60;;
9288;SDS011;4683;50.864;12.086;2024-03-17T13:41:12;3.57;;;2.90;;
9288;SDS011;4683;50.864;12.086;2024-03-17T13:43:42;3.63;;;2.60;;
9288;SDS011;4683;50.864;12.086;2024-03-17T13:46:11;3.50;;;2.77;;
9288;SDS011;4683;50.864;12.086;2024-03-17T13:48:39;4.33;;;3.07;;
9288;SDS011;4683;50.864;12.086;2024-03-17T13:51:08;3.20;;;2.90;;
9288;SDS011;4683;50.864;12.086;2024-03-17T13:53:38;4.40;;;2.77;;
9288;SDS011;4683;50.864;12.086;2024-03-17T13:56:10;4.20;;;2.97;;
9288;SDS011;4683;50.864;12.086;2024-03-17T13:58:39;5.43;;;2.77;;
9288;SDS011;4683;50.864;12.086;2024-03-17T14:01:10;3.37;;;3.00;;
9288;SDS011;4683;50.864;12.086;2024-03-17T14:03:40;3.47;;;2.60;;
9288;SDS011;4683;50.864;12.086;2024-03-17T14:06:09;3.10;;;2.80;;
9288;SDS011;4683;50.864;12.086;2024-03-17T14:08:38;2.90;;;2.60;;
9288;SDS011;4683;50.864;12.086;2024-03-17T14:11:08;4.10;;;3.13;;
9288;SDS011;4683;50.864;12.086;2024-03-17T14:13:37;3.17;;;2.63;;
9288;SDS011;4683;50.864;12.086;2024-03-17T14:16:07;3.80;;;2.60;;
9288;SDS011;4683;50.864;12.086;2024-03-17T14:18:37;3.67;;;3.07;;
9288;SDS011;4683;50.864;12.086;2024-03-17T14:21:06;5.57;;;3.37;;
9288;SDS011;4683;50.864;12.086;2024-03-17T14:23:35;3.73;;;2.90;;
9288;SDS011;4683;50.864;12.086;2024-03-17T14:26:03;3.80;;;3.03;;
9288;SDS011;4683;50.864;12.086;2024-03-17T14:28:32;3.27;;;2.80;;
9288;SDS011;4683;50.864;12.086;2024-03-17T14:31:01;4.93;;;4.43;;
9288;SDS011;4683;50.864;12.086;2024-03-17T14:33:31;3.27;;;2.93;;
9288;SDS011;4683;50.864;12.086;2024-03-17T14:36:00;2.60;;;2.40;;
9288;SDS011;4683;50.864;12.086;2024-03-17T14:38:29;3.30;;;2.70;;
9288;SDS011;4683;50.864;12.086;2024-03-17T14:40:57;5.10;;;3.97;;
9288;SDS011;4683;50.864;12.086;2024-03-17T14:43:26;5.07;;;2.90;;
9288;SDS011;4683;50.864;12.086;2024-03-17T14:45:54;4.20;;;2.37;;
9288;SDS011;4683;50.864;12.086;2024-03-17T14:48:22;3.63;;;2.77;;
9288;SDS011;4683;50.864;12.086;2024-03-17T14:50:52;3.00;;;2.70;;
9288;SDS011;4683;50.864;12.086;2024-03-17T14:53:20;4.40;;;3.03;;
9288;SDS011;4683;50.864;12.086;2024-03-17T14:55:49;3.20;;;2.90;;
9288;SDS011;4683;50.864;12.086;2024-03-17T14:58:20;3.40;;;2.90;;
9288;SDS011;4683;50.864;12.086;2024-03-17T15:00:48;2.83;;;2.60;;
9288;SDS011;4683;50.864;12.086;2024-03-17T15:03:16;3.13;;;2.50;;
9288;SDS011;4683;50.864;12.086;2024-03-17T15:05:45;3.87;;;2.77;;
9288;SDS011;4683;50.864;12.086;2024-03-17T15:08:14;4.00;;;2.80;;
9288;SDS011;4683;50.864;12.086;2024-03-17T15:10:44;5.80;;;2.60;;
9288;SDS011;4683;50.864;12.086;2024-03-17T15:13:12;2.53;;;2.33;;
9288;SDS011;4683;50.864;12.086;2024-03-17T15:15:41;4.50;;;2.53;;
9288;SDS011;4683;50.864;12.086;2024-03-17T15:18:10;5.10;;;3.30;;
9288;SDS011;4683;50.864;12.086;2024-03-17T15:20:39;4.70;;;3.20;;
9288;SDS011;4683;50.864;12.086;2024-03-17T15:23:09;3.23;;;2.57;;
9288;SDS011;4683;50.864;12.086;2024-03-17T15:25:39;3.93;;;2.70;;
9288;SDS011;4683;50.864;12.086;2024-03-17T15:28:09;4.47;;;2.80;;